sensor_id;sensor_type;location;lat;lon;timestamp;temperature;humidity
9448;DHT22;4762;48.128;11.376;2023-10-19T00:00:42;7.20;99.90
9448;DHT22;4762;48.128;11.376;2023-10-19T00:02:48;7.20;99.90
9448;DHT22;4762;48.128;11.376;2023-10-19T00:04:51;7.20;99.90
9448;DHT22;4762;48.128;11.376;2023-10-19T00:06:53;7.30;99.90
9448;DHT22;4762;48.128;11.376;2023-10-19T00:08:55;7.30;99.90
9448;DHT22;4762;48.128;11.376;2023-10-19T00:10:57;7.20;99.90
9448;DHT22;4762;48.128;11.376;2023-10-19T00:13:04;7.30;99.90
9448;DHT22;4762;48.128;11.376;2023-10-19T00:15:07;7.30;99.90
9448;DHT22;4762;48.128;11.376;2023-10-19T00:17:09;7.30;99.90
9448;DHT22;4762;48.128;11.376;2023-10-19T00:19:11;7.30;99.90
9448;DHT22;4762;48.128;11.376;2023-10-19T00:21:15;7.40;99.90
9448;DHT22;4762;48.128;11.376;2023-10-19T00:23:23;7.40;99.90
9448;DHT22;4762;48.128;11.376;2023-10-19T00:25:31;7.40;99.90
9448;DHT22;4762;48.128;11.376;2023-10-19T00:27:34;7.50;99.90
9448;DHT22;4762;48.128;11.376;2023-10-19T00:29:36;7.40;99.90
9448;DHT22;4762;48.128;11.376;2023-10-19T00:31:41;7.50;99.90
9448;DHT22;4762;48.128;11.376;2023-10-19T00:33:44;7.50;99.90
9448;DHT22;4762;48.128;11.376;2023-10-19T00:35:48;7.50;99.90
9448;DHT22;4762;48.128;11.376;2023-10-19T00:38:08;7.50;99.90
9448;DHT22;4762;48.128;11.376;2023-10-19T00:40:20;7.50;99.90
9448;DHT22;4762;48.128;11.376;2023-10-19T00:42:23;7.50;99.90
9448;DHT22;4762;48.128;11.376;2023-10-19T00:44:27;7.50;99.90
9448;DHT22;4762;48.128;11.376;2023-10-19T00:46:34;7.50;99.90
9448;DHT22;4762;48.128;11.376;2023-10-19T00:48:40;7.40;99.90
9448;DHT22;4762;48.128;11.376;2023-10-19T00:50:42;7.40;99.90
9448;DHT22;4762;48.128;11.376;2023-10-19T00:52:44;7.40;99.90
9448;DHT22;4762;48.128;11.376;2023-10-19T00:54:46;7.40;99.90
9448;DHT22;4762;48.128;11.376;2023-10-19T00:56:50;7.40;99.90
9448;DHT22;4762;48.128;11.376;2023-10-19T00:58:53;7.40;99.90
9448;DHT22;4762;48.128;11.376;2023-10-19T01:00:56;7.40;99.90
9448;DHT22;4762;48.128;11.376;2023-10-19T01:02:58;7.50;99.90
9448;DHT22;4762;48.128;11.376;2023-10-19T01:05:00;7.50;99.90
9448;DHT22;4762;48.128;11.376;2023-10-19T01:07:10;7.50;99.90
9448;DHT22;4762;48.128;11.376;2023-10-19T01:09:14;7.50;99.90
9448;DHT22;4762;48.128;11.376;2023-10-19T01:11:17;7.50;99.90
9448;DHT22;4762;48.128;11.376;2023-10-19T01:13:19;7.50;99.90
9448;DHT22;4762;48.128;11.376;2023-10-19T01:15:22;7.50;99.90
9448;DHT22;4762;48.128;11.376;2023-10-19T01:17:36;7.50;99.90
9448;DHT22;4762;48.128;11.376;2023-10-19T01:19:40;7.50;99.90
9448;DHT22;4762;48.128;11.376;2023-10-19T01:21:42;7.50;99.90
9448;DHT22;4762;48.128;11.376;2023-10-19T01:23:45;7.50;99.90
9448;DHT22;4762;48.128;11.376;2023-10-19T01:25:48;7.50;99.90
9448;DHT22;4762;48.128;11.376;2023-10-19T01:27:52;7.50;99.90
9448;DHT22;4762;48.128;11.376;2023-10-19T01:29:55;7.50;99.90
9448;DHT22;4762;48.128;11.376;2023-10-19T01:31:57;7.50;99.90
9448;DHT22;4762;48.128;11.376;2023-10-19T01:34:00;7.50;99.90
9448;DHT22;4762;48.128;11.376;2023-10-19T01:36:02;7.50;99.90
9448;DHT22;4762;48.128;11.376;2023-10-19T01:38:12;7.40;99.90
9448;DHT22;4762;48.128;11.376;2023-10-19T01:40:15;7.40;99.90
9448;DHT22;4762;48.128;11.376;2023-10-19T01:42:17;7.50;99.90
9448;DHT22;4762;48.128;11.376;2023-10-19T01:44:20;7.40;99.90
9448;DHT22;4762;48.128;11.376;2023-10-19T01:46:23;7.40;99.90
9448;DHT22;4762;48.128;11.376;2023-10-19T01:48:26;7.50;99.90
9448;DHT22;4762;48.128;11.376;2023-10-19T01:50:37;7.50;99.90
9448;DHT22;4762;48.128;11.376;2023-10-19T01:52:39;7.50;99.90
9448;DHT22;4762;48.128;11.376;2023-10-19T01:54:41;7.60;99.90
9448;DHT22;4762;48.128;11.376;2023-10-19T01:56:44;7.60;99.90
9448;DHT22;4762;48.128;11.376;2023-10-19T01:58:47;7.60;99.90
9448;DHT22;4762;48.128;11.376;2023-10-19T02:00:49;7.70;99.90
9448;DHT22;4762;48.128;11.376;2023-10-19T02:02:51;7.60;99.90
9448;DHT22;4762;48.128;11.376;2023-10-19T02:04:53;7.60;99.90
9448;DHT22;4762;48.128;11.376;2023-10-19T02:06:56;7.70;99.90
9448;DHT22;4762;48.128;11.376;2023-10-19T02:08:59;7.70;99.90
9448;DHT22;4762;48.128;11.376;2023-10-19T02:11:02;7.70;99.90
9448;DHT22;4762;48.128;11.376;2023-10-19T02:13:04;7.70;99.90
9448;DHT22;4762;48.128;11.376;2023-10-19T02:15:06;7.80;99.90
9448;DHT22;4762;48.128;11.376;2023-10-19T02:17:09;7.80;99.90
9448;DHT22;4762;48.128;11.376;2023-10-19T02:19:12;7.80;99.90
9448;DHT22;4762;48.128;11.376;2023-10-19T02:21:14;7.80;99.90
9448;DHT22;4762;48.128;11.376;2023-10-19T02:23:16;7.90;99.90
9448;DHT22;4762;48.128;11.376;2023-10-19T02:25:18;7.90;99.90
9448;DHT22;4762;48.128;11.376;2023-10-19T02:27:21;7.90;99.90
9448;DHT22;4762;48.128;11.376;2023-10-19T02:29:23;7.90;99.90
9448;DHT22;4762;48.128;11.376;2023-10-19T02:31:25;7.90;99.90
9448;DHT22;4762;48.128;11.376;2023-10-19T02:33:28;7.90;99.90
9448;DHT22;4762;48.128;11.376;2023-10-19T02:35:30;7.90;99.90
9448;DHT22;4762;48.128;11.376;2023-10-19T02:37:32;7.90;99.90
9448;DHT22;4762;48.128;11.376;2023-10-19T02:39:35;7.90;99.90
9448;DHT22;4762;48.128;11.376;2023-10-19T02:41:39;7.90;99.90
9448;DHT22;4762;48.128;11.376;2023-10-19T02:43:40;7.90;99.90
9448;DHT22;4762;48.128;11.376;2023-10-19T02:45:42;7.90;99.90
9448;DHT22;4762;48.128;11.376;2023-10-19T02:47:45;7.90;99.90
9448;DHT22;4762;48.128;11.376;2023-10-19T02:49:47;7.90;99.90
9448;DHT22;4762;48.128;11.376;2023-10-19T02:51:50;7.90;99.90
9448;DHT22;4762;48.128;11.376;2023-10-19T02:53:51;7.90;99.90
9448;DHT22;4762;48.128;11.376;2023-10-19T02:55:54;7.80;99.90
9448;DHT22;4762;48.128;11.376;2023-10-19T02:57:56;7.80;99.90
9448;DHT22;4762;48.128;11.376;2023-10-19T02:59:58;7.80;99.90
9448;DHT22;4762;48.128;11.376;2023-10-19T03:02:00;7.80;99.90
9448;DHT22;4762;48.128;11.376;2023-10-19T03:04:03;7.80;99.90
9448;DHT22;4762;48.128;11.376;2023-10-19T03:06:06;7.80;99.90
9448;DHT22;4762;48.128;11.376;2023-10-19T03:08:08;7.80;99.90
9448;DHT22;4762;48.128;11.376;2023-10-19T03:10:10;7.70;99.90
9448;DHT22;4762;48.128;11.376;2023-10-19T03:12:21;7.80;99.90
9448;DHT22;4762;48.128;11.376;2023-10-19T03:14:23;7.80;99.90
9448;DHT22;4762;48.128;11.376;2023-10-19T03:16:25;7.80;99.90
9448;DHT22;4762;48.128;11.376;2023-10-19T03:18:28;7.80;99.90
9448;DHT22;4762;48.128;11.376;2023-10-19T03:20:31;7.80;99.90
9448;DHT22;4762;48.128;11.376;2023-10-19T03:22:33;7.80;99.90
9448;DHT22;4762;48.128;11.376;2023-10-19T03:24:35;7.90;99.90
9448;DHT22;4762;48.128;11.376;2023-10-19T03:26:37;7.90;99.90
9448;DHT22;4762;48.128;11.376;2023-10-19T03:28:39;7.90;99.90
9448;DHT22;4762;48.128;11.376;2023-10-19T03:30:42;7.90;99.90
9448;DHT22;4762;48.128;11.376;2023-10-19T03:32:45;7.90;99.90
9448;DHT22;4762;48.128;11.376;2023-10-19T03:34:47;7.90;99.90
9448;DHT22;4762;48.128;11.376;2023-10-19T03:36:50;7.90;99.90
9448;DHT22;4762;48.128;11.376;2023-10-19T03:38:53;8.00;99.90
9448;DHT22;4762;48.128;11.376;2023-10-19T03:40:55;8.00;99.90
9448;DHT22;4762;48.128;11.376;2023-10-19T03:42:58;8.00;99.90
9448;DHT22;4762;48.128;11.376;2023-10-19T03:45:00;8.00;99.90
9448;DHT22;4762;48.128;11.376;2023-10-19T03:47:03;8.00;99.90
9448;DHT22;4762;48.128;11.376;2023-10-19T03:49:06;8.00;99.90
9448;DHT22;4762;48.128;11.376;2023-10-19T03:51:09;8.00;99.90
9448;DHT22;4762;48.128;11.376;2023-10-19T03:53:12;8.10;99.90
9448;DHT22;4762;48.128;11.376;2023-10-19T03:55:14;8.10;99.90
9448;DHT22;4762;48.128;11.376;2023-10-19T03:57:18;8.10;99.90
9448;DHT22;4762;48.128;11.376;2023-10-19T03:59:21;8.10;99.90
9448;DHT22;4762;48.128;11.376;2023-10-19T04:01:24;8.20;99.90
9448;DHT22;4762;48.128;11.376;2023-10-19T04:03:26;8.10;99.90
9448;DHT22;4762;48.128;11.376;2023-10-19T04:05:29;8.10;99.90
9448;DHT22;4762;48.128;11.376;2023-10-19T04:07:31;8.20;99.90
9448;DHT22;4762;48.128;11.376;2023-10-19T04:09:34;8.20;99.90
9448;DHT22;4762;48.128;11.376;2023-10-19T04:11:37;8.20;99.90
9448;DHT22;4762;48.128;11.376;2023-10-19T04:13:48;8.20;99.90
9448;DHT22;4762;48.128;11.376;2023-10-19T04:15:50;8.20;99.90
9448;DHT22;4762;48.128;11.376;2023-10-19T04:17:52;8.30;99.90
9448;DHT22;4762;48.128;11.376;2023-10-19T04:19:54;8.30;99.90
9448;DHT22;4762;48.128;11.376;2023-10-19T04:21:57;8.30;99.90
9448;DHT22;4762;48.128;11.376;2023-10-19T04:24:00;8.30;99.90
9448;DHT22;4762;48.128;11.376;2023-10-19T04:26:03;8.40;99.90
9448;DHT22;4762;48.128;11.376;2023-10-19T04:28:06;8.40;99.90
9448;DHT22;4762;48.128;11.376;2023-10-19T04:30:09;8.40;99.90
9448;DHT22;4762;48.128;11.376;2023-10-19T04:32:17;8.40;99.90
9448;DHT22;4762;48.128;11.376;2023-10-19T04:34:21;8.40;99.90
9448;DHT22;4762;48.128;11.376;2023-10-19T04:36:23;8.40;99.90
9448;DHT22;4762;48.128;11.376;2023-10-19T04:38:27;8.40;99.90
9448;DHT22;4762;48.128;11.376;2023-10-19T04:40:29;8.40;99.90
9448;DHT22;4762;48.128;11.376;2023-10-19T04:42:31;8.40;99.90
9448;DHT22;4762;48.128;11.376;2023-10-19T04:44:33;8.40;99.90
9448;DHT22;4762;48.128;11.376;2023-10-19T04:46:36;8.40;99.90
9448;DHT22;4762;48.128;11.376;2023-10-19T04:48:38;8.40;99.90
9448;DHT22;4762;48.128;11.376;2023-10-19T04:50:40;8.40;99.90
9448;DHT22;4762;48.128;11.376;2023-10-19T04:52:42;8.40;99.90
9448;DHT22;4762;48.128;11.376;2023-10-19T04:54:44;8.40;99.90
9448;DHT22;4762;48.128;11.376;2023-10-19T04:56:47;8.40;99.90
9448;DHT22;4762;48.128;11.376;2023-10-19T04:58:50;8.30;99.90
9448;DHT22;4762;48.128;11.376;2023-10-19T05:00:52;8.30;99.90
9448;DHT22;4762;48.128;11.376;2023-10-19T05:02:54;8.40;99.90
9448;DHT22;4762;48.128;11.376;2023-10-19T05:04:56;8.30;99.90
9448;DHT22;4762;48.128;11.376;2023-10-19T05:06:58;8.30;99.90
9448;DHT22;4762;48.128;11.376;2023-10-19T05:09:01;8.30;99.90
9448;DHT22;4762;48.128;11.376;2023-10-19T05:11:04;8.30;99.90
9448;DHT22;4762;48.128;11.376;2023-10-19T05:13:06;8.30;99.90
9448;DHT22;4762;48.128;11.376;2023-10-19T05:15:08;8.30;99.90
9448;DHT22;4762;48.128;11.376;2023-10-19T05:17:11;8.30;99.90
9448;DHT22;4762;48.128;11.376;2023-10-19T05:19:13;8.30;99.90
9448;DHT22;4762;48.128;11.376;2023-10-19T05:21:15;8.30;99.90
9448;DHT22;4762;48.128;11.376;2023-10-19T05:23:18;8.30;99.90
9448;DHT22;4762;48.128;11.376;2023-10-19T05:25:21;8.30;99.90
9448;DHT22;4762;48.128;11.376;2023-10-19T05:27:23;8.30;99.90
9448;DHT22;4762;48.128;11.376;2023-10-19T05:29:26;8.30;99.90
9448;DHT22;4762;48.128;11.376;2023-10-19T05:31:28;8.30;99.90
9448;DHT22;4762;48.128;11.376;2023-10-19T05:33:30;8.30;99.90
9448;DHT22;4762;48.128;11.376;2023-10-19T05:35:33;8.20;99.90
9448;DHT22;4762;48.128;11.376;2023-10-19T05:37:36;8.20;99.90
9448;DHT22;4762;48.128;11.376;2023-10-19T05:39:38;8.20;99.90
9448;DHT22;4762;48.128;11.376;2023-10-19T05:41:42;8.20;99.90
9448;DHT22;4762;48.128;11.376;2023-10-19T05:43:46;8.10;99.90
9448;DHT22;4762;48.128;11.376;2023-10-19T05:45:48;8.20;99.90
9448;DHT22;4762;48.128;11.376;2023-10-19T05:47:52;8.10;99.90
9448;DHT22;4762;48.128;11.376;2023-10-19T05:49:54;8.10;99.90
9448;DHT22;4762;48.128;11.376;2023-10-19T05:51:56;8.10;99.90
9448;DHT22;4762;48.128;11.376;2023-10-19T05:53:58;8.10;99.90
9448;DHT22;4762;48.128;11.376;2023-10-19T05:56:04;8.10;99.90
9448;DHT22;4762;48.128;11.376;2023-10-19T06:02:59;8.10;99.90
9448;DHT22;4762;48.128;11.376;2023-10-19T06:05:01;8.20;99.90
9448;DHT22;4762;48.128;11.376;2023-10-19T06:07:04;8.20;99.90
9448;DHT22;4762;48.128;11.376;2023-10-19T06:09:06;8.20;99.90
9448;DHT22;4762;48.128;11.376;2023-10-19T06:11:08;8.30;99.90
9448;DHT22;4762;48.128;11.376;2023-10-19T06:13:10;8.30;99.90
9448;DHT22;4762;48.128;11.376;2023-10-19T06:15:14;8.40;99.90
9448;DHT22;4762;48.128;11.376;2023-10-19T06:17:16;8.40;99.90
9448;DHT22;4762;48.128;11.376;2023-10-19T06:19:19;8.40;99.90
9448;DHT22;4762;48.128;11.376;2023-10-19T06:21:21;8.40;99.90
9448;DHT22;4762;48.128;11.376;2023-10-19T06:23:29;8.50;99.90
9448;DHT22;4762;48.128;11.376;2023-10-19T06:25:32;8.50;99.90
9448;DHT22;4762;48.128;11.376;2023-10-19T06:27:34;8.60;99.90
9448;DHT22;4762;48.128;11.376;2023-10-19T06:29:36;8.60;99.90
9448;DHT22;4762;48.128;11.376;2023-10-19T06:31:38;8.70;99.90
9448;DHT22;4762;48.128;11.376;2023-10-19T06:33:41;8.80;99.90
9448;DHT22;4762;48.128;11.376;2023-10-19T06:35:43;8.80;99.90
9448;DHT22;4762;48.128;11.376;2023-10-19T06:37:46;8.90;99.90
9448;DHT22;4762;48.128;11.376;2023-10-19T06:39:48;8.90;99.90
9448;DHT22;4762;48.128;11.376;2023-10-19T06:41:51;8.90;99.90
9448;DHT22;4762;48.128;11.376;2023-10-19T06:43:53;9.00;99.90
9448;DHT22;4762;48.128;11.376;2023-10-19T06:45:57;9.10;99.90
9448;DHT22;4762;48.128;11.376;2023-10-19T06:48:00;9.10;99.90
9448;DHT22;4762;48.128;11.376;2023-10-19T06:50:03;9.10;99.90
9448;DHT22;4762;48.128;11.376;2023-10-19T06:52:05;9.30;99.90
9448;DHT22;4762;48.128;11.376;2023-10-19T06:54:07;9.40;99.90
9448;DHT22;4762;48.128;11.376;2023-10-19T06:56:09;9.40;99.90
9448;DHT22;4762;48.128;11.376;2023-10-19T06:58:13;9.50;99.90
9448;DHT22;4762;48.128;11.376;2023-10-19T07:00:16;9.60;99.90
9448;DHT22;4762;48.128;11.376;2023-10-19T07:02:21;9.70;99.90
9448;DHT22;4762;48.128;11.376;2023-10-19T07:04:23;9.70;99.90
9448;DHT22;4762;48.128;11.376;2023-10-19T07:06:26;9.90;99.90
9448;DHT22;4762;48.128;11.376;2023-10-19T07:08:29;10.00;99.90
9448;DHT22;4762;48.128;11.376;2023-10-19T07:10:31;10.10;99.90
9448;DHT22;4762;48.128;11.376;2023-10-19T07:12:34;10.20;99.90
9448;DHT22;4762;48.128;11.376;2023-10-19T07:14:35;10.40;99.90
9448;DHT22;4762;48.128;11.376;2023-10-19T07:16:39;10.60;99.90
9448;DHT22;4762;48.128;11.376;2023-10-19T07:18:40;10.70;99.90
9448;DHT22;4762;48.128;11.376;2023-10-19T07:20:43;10.70;99.90
9448;DHT22;4762;48.128;11.376;2023-10-19T07:22:45;10.80;99.90
9448;DHT22;4762;48.128;11.376;2023-10-19T07:24:47;10.80;99.90
9448;DHT22;4762;48.128;11.376;2023-10-19T07:26:50;10.90;99.90
9448;DHT22;4762;48.128;11.376;2023-10-19T07:28:56;11.00;99.90
9448;DHT22;4762;48.128;11.376;2023-10-19T07:30:58;11.10;99.90
9448;DHT22;4762;48.128;11.376;2023-10-19T07:33:02;11.20;99.90
9448;DHT22;4762;48.128;11.376;2023-10-19T07:35:04;11.30;99.90
9448;DHT22;4762;48.128;11.376;2023-10-19T07:37:07;11.40;99.90
9448;DHT22;4762;48.128;11.376;2023-10-19T07:39:10;11.60;99.90
9448;DHT22;4762;48.128;11.376;2023-10-19T07:41:14;11.60;99.90
9448;DHT22;4762;48.128;11.376;2023-10-19T07:43:17;11.80;99.90
9448;DHT22;4762;48.128;11.376;2023-10-19T07:45:19;11.90;99.90
9448;DHT22;4762;48.128;11.376;2023-10-19T07:47:21;12.00;99.90
9448;DHT22;4762;48.128;11.376;2023-10-19T07:49:25;12.20;99.90
9448;DHT22;4762;48.128;11.376;2023-10-19T07:51:28;12.40;99.90
9448;DHT22;4762;48.128;11.376;2023-10-19T07:53:30;12.50;99.90
9448;DHT22;4762;48.128;11.376;2023-10-19T07:55:33;12.70;99.90
9448;DHT22;4762;48.128;11.376;2023-10-19T07:57:36;12.80;99.90
9448;DHT22;4762;48.128;11.376;2023-10-19T07:59:38;12.90;99.90
9448;DHT22;4762;48.128;11.376;2023-10-19T08:01:40;13.00;99.90
9448;DHT22;4762;48.128;11.376;2023-10-19T08:03:43;13.10;99.90
9448;DHT22;4762;48.128;11.376;2023-10-19T08:05:46;13.10;99.90
9448;DHT22;4762;48.128;11.376;2023-10-19T08:07:48;13.20;99.90
9448;DHT22;4762;48.128;11.376;2023-10-19T08:09:51;13.30;99.90
9448;DHT22;4762;48.128;11.376;2023-10-19T08:11:55;13.40;99.90
9448;DHT22;4762;48.128;11.376;2023-10-19T08:13:58;13.60;99.90
9448;DHT22;4762;48.128;11.376;2023-10-19T08:16:02;13.60;99.90
9448;DHT22;4762;48.128;11.376;2023-10-19T08:18:05;13.70;99.90
9448;DHT22;4762;48.128;11.376;2023-10-19T08:20:08;13.80;99.90
9448;DHT22;4762;48.128;11.376;2023-10-19T08:22:10;14.00;99.90
9448;DHT22;4762;48.128;11.376;2023-10-19T08:24:12;14.20;99.90
9448;DHT22;4762;48.128;11.376;2023-10-19T08:26:15;14.20;99.90
9448;DHT22;4762;48.128;11.376;2023-10-19T08:28:18;14.40;99.90
9448;DHT22;4762;48.128;11.376;2023-10-19T08:30:22;14.40;99.90
9448;DHT22;4762;48.128;11.376;2023-10-19T08:32:25;14.50;99.90
9448;DHT22;4762;48.128;11.376;2023-10-19T08:34:28;14.70;99.90
9448;DHT22;4762;48.128;11.376;2023-10-19T08:36:38;14.70;99.90
9448;DHT22;4762;48.128;11.376;2023-10-19T08:38:43;14.90;99.90
9448;DHT22;4762;48.128;11.376;2023-10-19T08:41:01;14.90;99.90
9448;DHT22;4762;48.128;11.376;2023-10-19T08:43:07;14.90;99.90
9448;DHT22;4762;48.128;11.376;2023-10-19T08:45:10;15.00;99.90
9448;DHT22;4762;48.128;11.376;2023-10-19T08:47:15;14.90;99.90
9448;DHT22;4762;48.128;11.376;2023-10-19T08:49:18;14.80;99.90
9448;DHT22;4762;48.128;11.376;2023-10-19T08:51:22;14.80;99.90
9448;DHT22;4762;48.128;11.376;2023-10-19T08:53:25;14.80;99.90
9448;DHT22;4762;48.128;11.376;2023-10-19T08:55:28;14.60;99.90
9448;DHT22;4762;48.128;11.376;2023-10-19T08:57:36;14.60;99.90
9448;DHT22;4762;48.128;11.376;2023-10-19T08:59:40;14.60;99.90
9448;DHT22;4762;48.128;11.376;2023-10-19T09:01:44;14.40;99.90
9448;DHT22;4762;48.128;11.376;2023-10-19T09:03:48;14.40;99.90
9448;DHT22;4762;48.128;11.376;2023-10-19T09:05:51;14.40;99.90
9448;DHT22;4762;48.128;11.376;2023-10-19T09:07:56;14.30;99.90
9448;DHT22;4762;48.128;11.376;2023-10-19T09:09:59;14.20;99.90
9448;DHT22;4762;48.128;11.376;2023-10-19T09:12:03;14.20;99.90
9448;DHT22;4762;48.128;11.376;2023-10-19T09:14:06;14.30;99.90
9448;DHT22;4762;48.128;11.376;2023-10-19T09:18:34;14.50;99.90
9448;DHT22;4762;48.128;11.376;2023-10-19T09:20:36;14.50;99.90
9448;DHT22;4762;48.128;11.376;2023-10-19T09:22:39;14.60;99.90
9448;DHT22;4762;48.128;11.376;2023-10-19T09:24:41;14.60;99.90
9448;DHT22;4762;48.128;11.376;2023-10-19T09:26:44;14.50;99.90
9448;DHT22;4762;48.128;11.376;2023-10-19T09:28:47;14.60;99.90
9448;DHT22;4762;48.128;11.376;2023-10-19T09:30:50;14.80;99.90
9448;DHT22;4762;48.128;11.376;2023-10-19T09:32:52;14.90;99.90
9448;DHT22;4762;48.128;11.376;2023-10-19T09:34:58;15.10;99.90
9448;DHT22;4762;48.128;11.376;2023-10-19T09:37:02;15.20;99.90
9448;DHT22;4762;48.128;11.376;2023-10-19T09:39:04;15.30;99.90
9448;DHT22;4762;48.128;11.376;2023-10-19T09:41:06;15.50;99.90
9448;DHT22;4762;48.128;11.376;2023-10-19T09:43:12;15.50;99.90
9448;DHT22;4762;48.128;11.376;2023-10-19T09:45:13;15.80;99.90
9448;DHT22;4762;48.128;11.376;2023-10-19T09:47:21;16.00;99.90
9448;DHT22;4762;48.128;11.376;2023-10-19T09:49:22;16.30;99.90
9448;DHT22;4762;48.128;11.376;2023-10-19T09:51:26;16.50;99.90
9448;DHT22;4762;48.128;11.376;2023-10-19T09:53:30;16.70;99.90
9448;DHT22;4762;48.128;11.376;2023-10-19T09:55:37;17.10;99.90
9448;DHT22;4762;48.128;11.376;2023-10-19T09:58:02;17.10;97.30
9448;DHT22;4762;48.128;11.376;2023-10-19T10:02:27;17.40;99.50
9448;DHT22;4762;48.128;11.376;2023-10-19T10:04:41;17.20;97.80
9448;DHT22;4762;48.128;11.376;2023-10-19T10:06:58;17.10;99.90
9448;DHT22;4762;48.128;11.376;2023-10-19T10:09:00;17.20;99.60
9448;DHT22;4762;48.128;11.376;2023-10-19T10:11:13;17.20;99.20
9448;DHT22;4762;48.128;11.376;2023-10-19T10:15:42;17.50;98.80
9448;DHT22;4762;48.128;11.376;2023-10-19T10:17:45;17.00;92.20
9448;DHT22;4762;48.128;11.376;2023-10-19T10:19:53;16.60;94.70
9448;DHT22;4762;48.128;11.376;2023-10-19T10:22:11;16.80;99.50
9448;DHT22;4762;48.128;11.376;2023-10-19T10:24:16;17.00;99.90
9448;DHT22;4762;48.128;11.376;2023-10-19T10:26:23;17.20;99.90
9448;DHT22;4762;48.128;11.376;2023-10-19T10:28:28;17.30;98.80
9448;DHT22;4762;48.128;11.376;2023-10-19T10:30:32;17.40;97.90
9448;DHT22;4762;48.128;11.376;2023-10-19T10:32:45;17.40;96.40
9448;DHT22;4762;48.128;11.376;2023-10-19T10:34:50;17.60;99.80
9448;DHT22;4762;48.128;11.376;2023-10-19T10:37:05;17.70;98.30
9448;DHT22;4762;48.128;11.376;2023-10-19T10:39:12;17.80;96.40
9448;DHT22;4762;48.128;11.376;2023-10-19T10:41:35;17.60;91.90
9448;DHT22;4762;48.128;11.376;2023-10-19T10:43:55;17.70;93.20
9448;DHT22;4762;48.128;11.376;2023-10-19T10:46:03;17.70;91.20
9448;DHT22;4762;48.128;11.376;2023-10-19T10:48:16;17.80;91.50
9448;DHT22;4762;48.128;11.376;2023-10-19T10:50:27;18.10;93.40
9448;DHT22;4762;48.128;11.376;2023-10-19T10:52:33;18.20;92.90
9448;DHT22;4762;48.128;11.376;2023-10-19T10:54:43;18.30;92.40
9448;DHT22;4762;48.128;11.376;2023-10-19T10:56:49;18.40;90.20
9448;DHT22;4762;48.128;11.376;2023-10-19T10:58:51;18.40;91.20
9448;DHT22;4762;48.128;11.376;2023-10-19T11:00:55;18.50;92.90
9448;DHT22;4762;48.128;11.376;2023-10-19T11:03:09;18.60;92.00
9448;DHT22;4762;48.128;11.376;2023-10-19T11:05:32;18.60;90.40
9448;DHT22;4762;48.128;11.376;2023-10-19T11:08:13;18.70;89.50
9448;DHT22;4762;48.128;11.376;2023-10-19T11:10:28;18.50;90.20
9448;DHT22;4762;48.128;11.376;2023-10-19T11:12:33;18.60;90.10
9448;DHT22;4762;48.128;11.376;2023-10-19T11:14:52;18.70;91.40
9448;DHT22;4762;48.128;11.376;2023-10-19T11:17:11;18.70;89.20
9448;DHT22;4762;48.128;11.376;2023-10-19T11:19:01;18.60;90.30
9448;DHT22;4762;48.128;11.376;2023-10-19T11:21:06;18.60;88.50
9448;DHT22;4762;48.128;11.376;2023-10-19T11:23:13;18.50;90.30
9448;DHT22;4762;48.128;11.376;2023-10-19T11:25:23;18.50;89.40
9448;DHT22;4762;48.128;11.376;2023-10-19T11:27:27;18.40;90.90
9448;DHT22;4762;48.128;11.376;2023-10-19T11:29:30;18.20;88.40
9448;DHT22;4762;48.128;11.376;2023-10-19T11:31:33;18.30;92.60
9448;DHT22;4762;48.128;11.376;2023-10-19T11:33:43;18.40;93.30
9448;DHT22;4762;48.128;11.376;2023-10-19T11:35:46;18.60;94.40
9448;DHT22;4762;48.128;11.376;2023-10-19T11:37:51;18.50;92.10
9448;DHT22;4762;48.128;11.376;2023-10-19T11:39:55;18.70;92.00
9448;DHT22;4762;48.128;11.376;2023-10-19T11:41:57;18.80;90.00
9448;DHT22;4762;48.128;11.376;2023-10-19T11:44:02;18.90;90.30
9448;DHT22;4762;48.128;11.376;2023-10-19T11:46:05;18.90;87.60
9448;DHT22;4762;48.128;11.376;2023-10-19T11:48:10;18.80;88.30
9448;DHT22;4762;48.128;11.376;2023-10-19T11:50:14;19.00;87.10
9448;DHT22;4762;48.128;11.376;2023-10-19T11:52:17;18.90;89.80
9448;DHT22;4762;48.128;11.376;2023-10-19T11:54:21;18.90;84.40
9448;DHT22;4762;48.128;11.376;2023-10-19T11:56:25;18.50;82.00
9448;DHT22;4762;48.128;11.376;2023-10-19T11:58:28;18.20;82.90
9448;DHT22;4762;48.128;11.376;2023-10-19T12:00:33;18.50;85.90
9448;DHT22;4762;48.128;11.376;2023-10-19T12:02:36;18.90;87.50
9448;DHT22;4762;48.128;11.376;2023-10-19T12:04:40;19.20;84.40
9448;DHT22;4762;48.128;11.376;2023-10-19T12:06:42;18.80;79.70
9448;DHT22;4762;48.128;11.376;2023-10-19T12:08:46;18.70;80.80
9448;DHT22;4762;48.128;11.376;2023-10-19T12:10:50;19.00;86.00
9448;DHT22;4762;48.128;11.376;2023-10-19T12:12:54;19.20;80.40
9448;DHT22;4762;48.128;11.376;2023-10-19T12:14:57;19.20;81.80
9448;DHT22;4762;48.128;11.376;2023-10-19T12:17:00;18.90;80.80
9448;DHT22;4762;48.128;11.376;2023-10-19T12:19:02;19.00;80.70
9448;DHT22;4762;48.128;11.376;2023-10-19T12:21:05;19.20;77.80
9448;DHT22;4762;48.128;11.376;2023-10-19T12:23:07;19.20;80.00
9448;DHT22;4762;48.128;11.376;2023-10-19T12:25:13;19.30;78.30
9448;DHT22;4762;48.128;11.376;2023-10-19T12:27:16;19.10;80.80
9448;DHT22;4762;48.128;11.376;2023-10-19T12:29:19;19.30;81.80
9448;DHT22;4762;48.128;11.376;2023-10-19T12:31:26;19.40;79.20
9448;DHT22;4762;48.128;11.376;2023-10-19T12:33:29;19.60;80.00
9448;DHT22;4762;48.128;11.376;2023-10-19T12:35:33;19.40;74.10
9448;DHT22;4762;48.128;11.376;2023-10-19T12:37:42;19.20;79.40
9448;DHT22;4762;48.128;11.376;2023-10-19T12:39:45;19.40;79.90
9448;DHT22;4762;48.128;11.376;2023-10-19T12:41:48;19.60;80.70
9448;DHT22;4762;48.128;11.376;2023-10-19T12:43:50;19.60;77.30
9448;DHT22;4762;48.128;11.376;2023-10-19T12:45:54;19.60;76.50
9448;DHT22;4762;48.128;11.376;2023-10-19T12:48:01;19.90;77.40
9448;DHT22;4762;48.128;11.376;2023-10-19T12:50:12;19.90;75.80
9448;DHT22;4762;48.128;11.376;2023-10-19T12:52:16;19.90;72.60
9448;DHT22;4762;48.128;11.376;2023-10-19T12:54:20;19.50;76.00
9448;DHT22;4762;48.128;11.376;2023-10-19T12:56:23;19.10;75.20
9448;DHT22;4762;48.128;11.376;2023-10-19T12:58:28;19.00;74.70
9448;DHT22;4762;48.128;11.376;2023-10-19T13:00:33;19.30;77.30
9448;DHT22;4762;48.128;11.376;2023-10-19T13:02:41;19.50;74.10
9448;DHT22;4762;48.128;11.376;2023-10-19T13:04:43;19.60;76.10
9448;DHT22;4762;48.128;11.376;2023-10-19T13:06:47;19.70;76.00
9448;DHT22;4762;48.128;11.376;2023-10-19T13:08:52;19.70;74.40
9448;DHT22;4762;48.128;11.376;2023-10-19T13:10:57;19.60;75.50
9448;DHT22;4762;48.128;11.376;2023-10-19T13:13:01;19.40;77.50
9448;DHT22;4762;48.128;11.376;2023-10-19T13:15:07;19.30;72.10
9448;DHT22;4762;48.128;11.376;2023-10-19T13:17:10;19.10;69.60
9448;DHT22;4762;48.128;11.376;2023-10-19T13:19:13;19.10;73.90
9448;DHT22;4762;48.128;11.376;2023-10-19T13:21:16;18.80;72.60
9448;DHT22;4762;48.128;11.376;2023-10-19T13:23:18;18.90;75.40
9448;DHT22;4762;48.128;11.376;2023-10-19T13:25:24;18.90;77.40
9448;DHT22;4762;48.128;11.376;2023-10-19T13:27:32;18.90;77.30
9448;DHT22;4762;48.128;11.376;2023-10-19T13:29:35;18.80;73.50
9448;DHT22;4762;48.128;11.376;2023-10-19T13:31:38;18.70;73.90
9448;DHT22;4762;48.128;11.376;2023-10-19T13:33:40;18.60;76.70
9448;DHT22;4762;48.128;11.376;2023-10-19T13:35:43;18.60;75.40